Aérodrome :
LOGIN :

S'inscrire | Disclaimer

   EN    FR    IT 

 










Légende :    VFR   VFR Marginal   IFR   IFR Intensif   IFR Très Intensif
Visi : 
Plafond : 
>= 8 km
>= 3000ft
5 à 8 km
1000 à 3000 ft
1500m à 5 km
500 à 1000 ft
800 à 1500m
200 à 500 ft
< 800m
< 200 ft
Symboles :   Orages  Brouillard  Fortes neiges  Fortes précipitations  Vent > 20 kt
SIGMETs :   Divers  Orages  Givrage  Turbulence  Onde Orograph.  Cendres Volcan.






- Altitude de l'aérodrome : 392 ft
- Code IATA : CDG


LFPG - Paris-Aeroport Charles De Gaulle

DERNIER METAR :
  • 180500Z 35006KT CAVOK 02/00 Q1023 NOSIG

METARs EXPIRÉS :
  • 180430Z 01006KT 340V120 CAVOK 02/00 Q1023 NOSIG
  • 180400Z 01006KT 350V110 CAVOK 02/00 Q1023 NOSIG
  • 180330Z 01009KT 360V080 CAVOK 03/00 Q1023 NOSIG
  • 180300Z 36010KT CAVOK 03/M00 Q1023 NOSIG
  • 180230Z 01007KT CAVOK 03/00 Q1023 NOSIG

TAF AMD TAF LFPG
Valide du 18 à 00h jusqu'au 19 à 06h UTC


180000Z 1800/1906 03012KT CAVOK TX14/1815Z TN02/1805Z
PROB30
TEMPO 1904/1906 4000 BR
ATIS : +33 1 48 62 10 92



MET'MAP, la Météo Aéronautique d'un coup d'oeil ! - Copyright ORBIFLY Décembre 2007 - Disclaimer

ORBIFLY MET'MAP TEAM :

Programmation & Développement : Alexandra Zaïnal
Sur une idée originale de : Baudouin d'Aumeries
Assistance à la programmation : Marc-Olivier Méhu
Soutien technique & logistique : Manuel Goepfert

Contact : metmap@orbifly.com




SOURCES & CREDITS :

   NOAA